createdAt,value
2022-10-13T00:00:21.732Z,85.76
2022-10-13T00:05:24.620Z,85.38
2022-10-13T00:10:29.020Z,84.52
2022-10-13T00:15:32.032Z,84.06
2022-10-13T00:20:35.096Z,84.34
2022-10-13T00:25:43.551Z,84.79
2022-10-13T00:30:47.392Z,84.97
2022-10-13T00:35:51.095Z,85.81
2022-10-13T00:40:57.345Z,85.51
2022-10-13T00:46:00.338Z,84.62
2022-10-13T00:51:03.383Z,85.37
2022-10-13T00:56:10.946Z,85.72
2022-10-13T01:01:13.834Z,85.05
2022-10-13T01:06:22.523Z,85.21
2022-10-13T01:11:44.305Z,84.96
2022-10-13T01:16:56.814Z,84.74
2022-10-13T01:22:13.953Z,85.11
2022-10-13T01:27:37.725Z,84.43
2022-10-13T01:33:00.310Z,84.27
2022-10-13T01:38:09.135Z,85.19
2022-10-13T01:43:15.399Z,84.77
2022-10-13T01:48:20.686Z,85.04
2022-10-13T01:53:28.552Z,85.12
2022-10-13T01:58:34.695Z,85.61
2022-10-13T02:03:48.698Z,85.33
2022-10-13T02:08:59.709Z,85.12
2022-10-13T02:14:06.368Z,84.69
2022-10-13T02:19:14.223Z,84.87
2022-10-13T02:24:17.452Z,85.12
2022-10-13T02:29:20.832Z,85.03
2022-10-13T02:34:25.068Z,85.09
2022-10-13T02:39:27.989Z,84.87
2022-10-13T02:44:30.869Z,85.50
2022-10-13T02:49:35.142Z,84.92
2022-10-13T02:54:38.084Z,85.33
2022-10-13T02:59:40.947Z,85.30
2022-10-13T03:04:45.181Z,84.50
2022-10-13T03:09:48.090Z,85.39
2022-10-13T03:20:14.581Z,85.39
2022-10-13T03:25:17.947Z,85.35
2022-10-13T03:30:20.881Z,85.14
2022-10-13T03:35:25.137Z,86.27
2022-10-13T03:40:28.412Z,86.34
2022-10-13T03:45:31.550Z,86.34
2022-10-13T03:50:35.815Z,86.35
2022-10-13T03:55:38.825Z,87.46
2022-10-13T04:00:41.936Z,86.43
2022-10-13T04:05:46.233Z,86.27
2022-10-13T04:10:49.123Z,85.67
2022-10-13T04:15:52.050Z,86.67
2022-10-13T04:20:56.355Z,85.69
2022-10-13T04:25:59.266Z,85.49
2022-10-13T04:31:02.228Z,86.22
2022-10-13T04:36:11.565Z,85.47
2022-10-13T04:41:16.606Z,86.77
2022-10-13T04:46:22.090Z,87.04
2022-10-13T04:51:27.316Z,86.67
2022-10-13T04:56:30.939Z,86.47
2022-10-13T05:01:38.588Z,86.33
2022-10-13T05:07:12.598Z,86.52
2022-10-13T05:12:08.567Z,86.80
2022-10-13T05:17:11.503Z,86.59
2022-10-13T05:22:15.745Z,87.15
2022-10-13T05:27:18.657Z,86.54
2022-10-13T05:32:22.004Z,86.42
2022-10-13T05:37:26.586Z,87.17
2022-10-13T05:42:30.081Z,86.40
2022-10-13T05:47:32.971Z,86.46
2022-10-13T05:52:38.687Z,86.09
2022-10-13T05:57:45.040Z,85.38
2022-10-13T06:02:53.388Z,85.16
2022-10-13T06:07:58.222Z,85.99
2022-10-13T06:13:01.119Z,84.75
2022-10-13T06:18:08.867Z,85.59
2022-10-13T06:23:13.156Z,85.39
2022-10-13T06:28:16.335Z,85.83
2022-10-13T06:33:19.252Z,85.69
2022-10-13T06:38:23.552Z,84.44
2022-10-13T06:43:34.385Z,84.67
2022-10-13T06:48:42.552Z,84.21
2022-10-13T06:53:46.868Z,84.13
2022-10-13T06:58:49.975Z,82.22
2022-10-13T07:03:53.328Z,80.20
2022-10-13T07:08:58.419Z,78.20
2022-10-13T07:19:09.743Z,75.23
2022-10-13T07:24:15.315Z,77.20
2022-10-13T07:29:18.348Z,77.27
2022-10-13T07:34:21.232Z,75.27
2022-10-13T07:39:25.560Z,73.36
2022-10-13T07:44:28.526Z,72.15
2022-10-13T07:49:31.461Z,73.73
2022-10-13T07:54:36.692Z,74.68
2022-10-13T07:59:39.935Z,74.33
2022-10-13T08:04:46.082Z,73.90
2022-10-13T08:09:50.382Z,74.97
2022-10-13T08:14:53.355Z,71.89
2022-10-13T08:19:56.392Z,70.05
2022-10-13T08:25:03.571Z,67.49
2022-10-13T08:30:07.752Z,67.65
2022-10-13T08:35:14.600Z,69.02
2022-10-13T08:40:23.070Z,67.42
2022-10-13T08:45:41.031Z,69.74
2022-10-13T08:50:48.942Z,64.25
2022-10-13T08:55:58.287Z,65.50
2022-10-13T09:01:11.562Z,64.70
2022-10-13T09:06:17.023Z,64.78
2022-10-13T09:11:21.868Z,62.30
2022-10-13T09:16:29.936Z,60.92
2022-10-13T09:21:33.084Z,61.38
2022-10-13T09:26:40.448Z,58.44
2022-10-13T09:31:43.789Z,58.15
2022-10-13T09:37:01.811Z,58.71
2022-10-13T09:42:23.282Z,57.28
2022-10-13T09:47:27.780Z,56.68
2022-10-13T09:52:30.886Z,58.60
2022-10-13T09:57:42.535Z,57.00
2022-10-13T10:02:50.156Z,58.83
2022-10-13T10:07:53.524Z,55.46
2022-10-13T10:12:58.204Z,54.83
2022-10-13T10:18:08.256Z,55.87
2022-10-13T10:23:20.260Z,55.04
2022-10-13T10:28:50.283Z,55.63
2022-10-13T10:34:03.266Z,56.18
2022-10-13T10:39:18.917Z,55.68
2022-10-13T10:44:30.618Z,55.25
2022-10-13T10:49:35.237Z,55.40
2022-10-13T10:54:48.305Z,54.54
2022-10-13T11:00:01.831Z,53.53
2022-10-13T11:05:06.552Z,54.24
2022-10-13T11:10:22.099Z,53.76
2022-10-13T11:15:31.168Z,54.64
2022-10-13T11:20:59.219Z,53.59
2022-10-13T11:26:29.014Z,51.27
2022-10-13T11:31:49.866Z,52.31
2022-10-13T11:36:57.795Z,53.30
2022-10-13T11:42:10.479Z,51.91
2022-10-13T11:47:30.375Z,50.54
2022-10-13T11:52:50.110Z,51.05
2022-10-13T11:57:53.285Z,50.60
2022-10-13T12:02:57.621Z,51.67
2022-10-13T12:08:05.580Z,51.01
2022-10-13T12:13:22.635Z,51.33
2022-10-13T12:18:28.759Z,51.12
2022-10-13T12:23:33.027Z,52.29
2022-10-13T12:28:49.582Z,53.78
2022-10-13T12:33:55.960Z,52.28
2022-10-13T12:39:02.769Z,52.73
2022-10-13T12:44:07.112Z,53.57
2022-10-13T12:49:18.199Z,53.75
2022-10-13T12:54:24.531Z,54.23
2022-10-13T12:59:30.025Z,54.48
2022-10-13T13:04:43.491Z,53.14
2022-10-13T13:10:01.684Z,55.39
2022-10-13T13:15:32.936Z,54.22
2022-10-13T13:20:38.354Z,55.46
2022-10-13T13:25:41.385Z,55.99
2022-10-13T13:30:44.656Z,56.21
2022-10-13T13:35:49.587Z,56.78
2022-10-13T13:40:52.552Z,57.11
2022-10-13T13:45:55.557Z,56.39
2022-10-13T13:51:00.287Z,56.60
2022-10-13T13:56:03.960Z,56.37
2022-10-13T14:01:06.980Z,56.14
2022-10-13T14:06:18.587Z,56.16
2022-10-13T14:11:21.622Z,55.99
2022-10-13T14:16:24.748Z,55.02
2022-10-13T14:21:30.412Z,54.88
2022-10-13T14:26:33.365Z,58.03
2022-10-13T14:31:36.318Z,57.46
2022-10-13T14:36:40.600Z,58.41
2022-10-13T14:41:43.665Z,58.19
2022-10-13T14:46:46.839Z,59.83
2022-10-13T14:51:51.149Z,59.80
2022-10-13T14:56:54.086Z,60.21
2022-10-13T15:01:57.123Z,60.64
2022-10-13T15:07:01.442Z,63.40
2022-10-13T15:12:06.728Z,63.65
2022-10-13T15:17:10.066Z,64.13
2022-10-13T15:22:24.132Z,63.88
2022-10-13T15:27:27.591Z,64.46
2022-10-13T15:32:30.536Z,62.20
2022-10-13T15:37:38.169Z,64.53
2022-10-13T15:42:41.136Z,65.78
2022-10-13T15:47:44.136Z,66.77
2022-10-13T15:52:48.492Z,67.11
2022-10-13T15:57:51.909Z,66.80
2022-10-13T16:02:55.027Z,64.60
2022-10-13T16:08:00.106Z,65.61
2022-10-13T16:13:03.132Z,66.43
2022-10-13T16:18:06.215Z,66.06
2022-10-13T16:23:10.641Z,66.34
2022-10-13T16:28:15.037Z,66.72
2022-10-13T16:33:18.048Z,66.97
2022-10-13T16:38:22.438Z,67.47
2022-10-13T16:43:25.492Z,68.81
2022-10-13T16:48:31.022Z,69.48
2022-10-13T16:53:35.666Z,69.56
2022-10-13T16:58:43.356Z,70.20
2022-10-13T17:03:47.320Z,70.76
2022-10-13T17:08:51.777Z,69.26
2022-10-13T17:13:56.561Z,69.78
2022-10-13T17:18:59.765Z,69.72
2022-10-13T17:24:17.656Z,70.72
2022-10-13T17:29:20.632Z,70.65
2022-10-13T17:34:23.617Z,71.46
2022-10-13T17:39:29.147Z,71.37
2022-10-13T17:44:33.612Z,71.81
2022-10-13T17:49:36.957Z,72.20
2022-10-13T17:54:41.410Z,72.50
2022-10-13T17:59:44.415Z,72.49
2022-10-13T18:04:47.392Z,72.49
2022-10-13T18:09:53.722Z,72.48
2022-10-13T18:14:56.668Z,73.56
2022-10-13T18:19:59.626Z,73.74
2022-10-13T18:25:04.156Z,74.10
2022-10-13T18:30:09.925Z,73.72
2022-10-13T18:35:13.021Z,73.76
2022-10-13T18:40:17.464Z,73.46
2022-10-13T18:45:22.111Z,73.99
2022-10-13T18:50:25.026Z,74.05
2022-10-13T18:55:30.138Z,73.64
2022-10-13T19:00:33.324Z,73.23
2022-10-13T19:05:38.396Z,72.89
2022-10-13T19:10:42.775Z,74.95
2022-10-13T19:15:45.732Z,75.82
2022-10-13T19:20:48.875Z,75.91
2022-10-13T19:25:53.470Z,75.52
2022-10-13T19:30:56.529Z,75.15
2022-10-13T19:35:59.486Z,75.24
2022-10-13T19:41:06.602Z,74.79
2022-10-13T19:46:10.363Z,75.12
2022-10-13T19:51:14.829Z,77.51
2022-10-13T19:56:24.779Z,77.23
2022-10-13T20:01:28.143Z,76.37
2022-10-13T20:06:31.362Z,77.41
2022-10-13T20:11:36.102Z,77.97
2022-10-13T20:16:39.166Z,77.88
2022-10-13T20:21:42.056Z,78.67
2022-10-13T20:26:48.438Z,78.33
2022-10-13T20:31:51.625Z,76.79
2022-10-13T20:36:54.611Z,77.90
2022-10-13T20:41:58.972Z,78.85
2022-10-13T20:47:03.599Z,79.93
2022-10-13T20:52:06.554Z,78.74
2022-10-13T20:57:10.869Z,78.80
2022-10-13T21:02:14.326Z,78.30
2022-10-13T21:07:17.261Z,77.98
2022-10-13T21:12:21.601Z,78.53
2022-10-13T21:17:24.575Z,77.83
2022-10-13T21:22:28.443Z,78.53
2022-10-13T21:27:34.940Z,77.65
2022-10-13T21:32:38.065Z,77.75
2022-10-13T21:37:41.028Z,77.92
2022-10-13T21:42:45.292Z,78.81
2022-10-13T21:47:48.201Z,78.72
2022-10-13T21:52:51.060Z,78.70
2022-10-13T21:57:56.686Z,78.77
2022-10-13T22:03:02.514Z,79.28
2022-10-13T22:08:05.803Z,79.68
2022-10-13T22:13:10.167Z,79.47
2022-10-13T22:18:13.193Z,80.03
2022-10-13T22:23:16.176Z,80.22
2022-10-13T22:28:21.883Z,80.50
2022-10-13T22:33:24.927Z,81.27
2022-10-13T22:38:30.556Z,80.87
2022-10-13T22:43:35.692Z,80.84
2022-10-13T22:48:47.944Z,80.72
2022-10-13T22:53:51.683Z,82.12
2022-10-13T22:58:57.663Z,80.97
2022-10-13T23:04:02.219Z,80.03
2022-10-13T23:09:07.479Z,80.76
2022-10-13T23:14:12.867Z,80.66
2022-10-13T23:19:15.903Z,79.51
2022-10-13T23:24:18.906Z,79.55
2022-10-13T23:29:23.565Z,79.98
2022-10-13T23:34:28.216Z,79.08
2022-10-13T23:39:31.277Z,79.47
2022-10-13T23:44:35.655Z,80.24
2022-10-13T23:49:38.743Z,80.56
2022-10-13T23:54:41.742Z,80.80
2022-10-13T23:59:47.335Z,80.73
